RYR62XJ LOWK-LEPA
Flight info
| Callsign | RYR62XJ |
|---|---|
| Flight time | N/A |
| Altitude | 39000 |
| Route | BERTA DCT RIFEN DCT OSLOP DCT BENUS DCT UNITA DCT RARQU DCT BALEN UT250 RIXOT |
| Aircraft | B738/M-SDE2E3FGHIRWXY/LB1 |
Departure
| Time | N/A |
|---|---|
| Airport | Klagenfurt Airport (LOWK) |
Arrival
| Time | 2026-05-05 18:12 |
|---|---|
| Airport | Palma de Mallorca Airport (LEPA) |
| Time | Latitude | Longitude | Altitude | Speed | Heading |
|---|---|---|---|---|---|
| 2026-05-05 17:09 | 43.96554 | 9.07284 | 38966 ft | 450 kts | 241° |
| 2026-05-05 17:10 | 43.92563 | 9.00593 | 38962 ft | 458 kts | 227° |
| 2026-05-05 17:10 | 43.87548 | 8.94998 | 38967 ft | 459 kts | 224° |
| 2026-05-05 17:11 | 43.82625 | 8.89541 | 38966 ft | 455 kts | 224° |
| 2026-05-05 17:11 | 43.77704 | 8.84107 | 38965 ft | 454 kts | 224° |
| 2026-05-05 17:12 | 43.72772 | 8.78681 | 38966 ft | 455 kts | 224° |
| 2026-05-05 17:12 | 43.67813 | 8.73242 | 38965 ft | 455 kts | 224° |
| 2026-05-05 17:13 | 43.62874 | 8.67839 | 38966 ft | 456 kts | 224° |
| 2026-05-05 17:13 | 43.57930 | 8.62444 | 38965 ft | 456 kts | 224° |
| 2026-05-05 17:14 | 43.52954 | 8.57025 | 38966 ft | 456 kts | 224° |
| 2026-05-05 17:14 | 43.48005 | 8.51648 | 38965 ft | 456 kts | 224° |
| 2026-05-05 17:15 | 43.43033 | 8.46259 | 38965 ft | 455 kts | 224° |
| 2026-05-05 17:15 | 43.38086 | 8.40908 | 38966 ft | 455 kts | 224° |
| 2026-05-05 17:16 | 43.33123 | 8.35552 | 38966 ft | 455 kts | 224° |
| 2026-05-05 17:16 | 43.28141 | 8.30186 | 38966 ft | 456 kts | 223° |
| 2026-05-05 17:17 | 43.23179 | 8.24855 | 38966 ft | 456 kts | 223° |
| 2026-05-05 17:17 | 43.18186 | 8.19502 | 38965 ft | 456 kts | 223° |
| 2026-05-05 17:18 | 43.13231 | 8.14200 | 38966 ft | 456 kts | 223° |
| 2026-05-05 17:18 | 43.08242 | 8.08873 | 38965 ft | 456 kts | 223° |
| 2026-05-05 17:19 | 43.03260 | 8.03564 | 38965 ft | 456 kts | 223° |
| 2026-05-05 17:19 | 42.98277 | 7.98264 | 38965 ft | 458 kts | 224° |
| 2026-05-05 17:20 | 42.93234 | 7.92901 | 38966 ft | 463 kts | 224° |
| 2026-05-05 17:20 | 42.88102 | 7.87446 | 38965 ft | 467 kts | 224° |
| 2026-05-05 17:21 | 42.82945 | 7.81976 | 38968 ft | 471 kts | 224° |
| 2026-05-05 17:22 | 42.75188 | 7.73788 | 38965 ft | 472 kts | 224° |
| 2026-05-05 17:22 | 42.70034 | 7.68372 | 38965 ft | 471 kts | 224° |
| 2026-05-05 17:23 | 42.64883 | 7.62970 | 38965 ft | 471 kts | 224° |
| 2026-05-05 17:23 | 42.59693 | 7.57539 | 38966 ft | 471 kts | 224° |
| 2026-05-05 17:24 | 42.54541 | 7.52161 | 38966 ft | 471 kts | 224° |
| 2026-05-05 17:24 | 42.49332 | 7.46735 | 38966 ft | 471 kts | 224° |
| 2026-05-05 17:25 | 42.44161 | 7.41360 | 38966 ft | 471 kts | 224° |
| 2026-05-05 17:25 | 42.38987 | 7.35994 | 38966 ft | 471 kts | 224° |
| 2026-05-05 17:26 | 42.33749 | 7.30572 | 38966 ft | 472 kts | 224° |
| 2026-05-05 17:26 | 42.28541 | 7.25192 | 38966 ft | 472 kts | 224° |
| 2026-05-05 17:27 | 42.23329 | 7.19820 | 38965 ft | 472 kts | 224° |
| 2026-05-05 17:27 | 42.18140 | 7.14486 | 38966 ft | 471 kts | 224° |
| 2026-05-05 17:28 | 42.12956 | 7.09170 | 38965 ft | 470 kts | 224° |
| 2026-05-05 17:28 | 42.07769 | 7.03862 | 38966 ft | 468 kts | 224° |
| 2026-05-05 17:29 | 42.02623 | 6.98606 | 38965 ft | 467 kts | 224° |
| 2026-05-05 17:29 | 41.97787 | 6.92910 | 38967 ft | 461 kts | 230° |
| 2026-05-05 17:30 | 41.93096 | 6.87093 | 38966 ft | 462 kts | 229° |
| 2026-05-05 17:30 | 41.88367 | 6.81284 | 38965 ft | 462 kts | 229° |
| 2026-05-05 17:31 | 41.83642 | 6.75502 | 38966 ft | 461 kts | 229° |
| 2026-05-05 17:31 | 41.78911 | 6.69729 | 38966 ft | 462 kts | 229° |
| 2026-05-05 17:32 | 41.74169 | 6.63957 | 38966 ft | 462 kts | 229° |
| 2026-05-05 17:32 | 41.69435 | 6.58210 | 38965 ft | 462 kts | 229° |
| 2026-05-05 17:33 | 41.64701 | 6.52476 | 38966 ft | 462 kts | 229° |
| 2026-05-05 17:33 | 41.59951 | 6.46735 | 38966 ft | 462 kts | 229° |
| 2026-05-05 17:34 | 41.55186 | 6.40987 | 38965 ft | 462 kts | 229° |
| 2026-05-05 17:34 | 41.50444 | 6.35281 | 38957 ft | 462 kts | 229° |
| 2026-05-05 17:35 | 41.45660 | 6.29531 | 38939 ft | 464 kts | 228° |
| 2026-05-05 17:35 | 41.40862 | 6.23778 | 38939 ft | 464 kts | 228° |
| 2026-05-05 17:36 | 41.36081 | 6.18060 | 38938 ft | 463 kts | 228° |
| 2026-05-05 17:36 | 41.31296 | 6.12350 | 38939 ft | 463 kts | 228° |
| 2026-05-05 17:37 | 41.26537 | 6.06680 | 38939 ft | 463 kts | 228° |
| 2026-05-05 17:37 | 41.21754 | 6.00994 | 38939 ft | 463 kts | 228° |
| 2026-05-05 17:38 | 41.16953 | 5.95300 | 38937 ft | 463 kts | 228° |
| 2026-05-05 17:38 | 41.12164 | 5.89630 | 38931 ft | 463 kts | 228° |
| 2026-05-05 17:39 | 41.07350 | 5.83939 | 38921 ft | 464 kts | 228° |
| 2026-05-05 17:39 | 41.02533 | 5.78250 | 38915 ft | 467 kts | 227° |
| 2026-05-05 17:40 | 40.97707 | 5.72541 | 38912 ft | 469 kts | 228° |
| 2026-05-05 17:40 | 40.93332 | 5.66257 | 38912 ft | 462 kts | 238° |
| 2026-05-05 17:41 | 40.89585 | 5.59379 | 38911 ft | 461 kts | 239° |
| 2026-05-05 17:41 | 40.85827 | 5.52439 | 38911 ft | 460 kts | 239° |
| 2026-05-05 17:42 | 40.82120 | 5.45578 | 38911 ft | 460 kts | 240° |
| 2026-05-05 17:42 | 40.78429 | 5.38743 | 38912 ft | 460 kts | 240° |
| 2026-05-05 17:43 | 40.74682 | 5.31814 | 38912 ft | 461 kts | 239° |
| 2026-05-05 17:43 | 40.70972 | 5.24966 | 38912 ft | 461 kts | 239° |
| 2026-05-05 17:44 | 40.67241 | 5.18089 | 38912 ft | 461 kts | 239° |
| 2026-05-05 17:44 | 40.63535 | 5.11271 | 38840 ft | 462 kts | 239° |
| 2026-05-05 17:44 | 40.61668 | 5.07842 | 38388 ft | 460 kts | 239° |
| 2026-05-05 17:45 | 40.59821 | 5.04458 | 37863 ft | 454 kts | 239° |
| 2026-05-05 17:45 | 40.58005 | 5.01134 | 37342 ft | 449 kts | 239° |
| 2026-05-05 17:45 | 40.56186 | 4.97806 | 36813 ft | 443 kts | 239° |
| 2026-05-05 17:45 | 40.54409 | 4.94559 | 36291 ft | 438 kts | 238° |
| 2026-05-05 17:46 | 40.52632 | 4.91312 | 35761 ft | 433 kts | 238° |
| 2026-05-05 17:46 | 40.50898 | 4.88150 | 35239 ft | 428 kts | 238° |
| 2026-05-05 17:46 | 40.49169 | 4.84997 | 34712 ft | 423 kts | 238° |
| 2026-05-05 17:46 | 40.47469 | 4.81905 | 34189 ft | 419 kts | 237° |
| 2026-05-05 17:47 | 40.45754 | 4.78792 | 33657 ft | 415 kts | 237° |
| 2026-05-05 17:47 | 40.44060 | 4.75716 | 33126 ft | 410 kts | 237° |
| 2026-05-05 17:47 | 40.42386 | 4.72680 | 32596 ft | 407 kts | 237° |
| 2026-05-05 17:47 | 40.40754 | 4.69718 | 32074 ft | 403 kts | 237° |
| 2026-05-05 17:48 | 40.39089 | 4.66700 | 31537 ft | 399 kts | 237° |
| 2026-05-05 17:48 | 40.37466 | 4.63761 | 31009 ft | 396 kts | 237° |
| 2026-05-05 17:48 | 40.35858 | 4.60849 | 30482 ft | 392 kts | 237° |
| 2026-05-05 17:48 | 40.34276 | 4.57985 | 29959 ft | 389 kts | 237° |
| 2026-05-05 17:49 | 40.32671 | 4.55086 | 29425 ft | 386 kts | 237° |
| 2026-05-05 17:49 | 40.31117 | 4.52273 | 28903 ft | 383 kts | 237° |
| 2026-05-05 17:49 | 40.29556 | 4.49451 | 28376 ft | 380 kts | 237° |
| 2026-05-05 17:49 | 40.28022 | 4.46681 | 27854 ft | 378 kts | 237° |
| 2026-05-05 17:50 | 40.26475 | 4.43891 | 27325 ft | 375 kts | 237° |
| 2026-05-05 17:50 | 40.24941 | 4.41128 | 26796 ft | 373 kts | 237° |
| 2026-05-05 17:50 | 40.23447 | 4.38439 | 26278 ft | 370 kts | 237° |
| 2026-05-05 17:50 | 40.21931 | 4.35716 | 25750 ft | 368 kts | 237° |
| 2026-05-05 17:51 | 40.20435 | 4.33031 | 25226 ft | 366 kts | 236° |
| 2026-05-05 17:51 | 40.18897 | 4.30272 | 24684 ft | 364 kts | 236° |
| 2026-05-05 17:51 | 40.17376 | 4.27549 | 24146 ft | 362 kts | 236° |
| 2026-05-05 17:51 | 40.15902 | 4.24912 | 23622 ft | 360 kts | 236° |
| 2026-05-05 17:52 | 40.14419 | 4.22260 | 23092 ft | 358 kts | 236° |
| 2026-05-05 17:52 | 40.12967 | 4.19666 | 22570 ft | 356 kts | 236° |
| 2026-05-05 17:52 | 40.11503 | 4.17051 | 22042 ft | 355 kts | 236° |
| 2026-05-05 17:52 | 40.10055 | 4.14470 | 21517 ft | 353 kts | 236° |
| 2026-05-05 17:53 | 40.08620 | 4.11913 | 20995 ft | 351 kts | 236° |
| 2026-05-05 17:53 | 40.07186 | 4.09358 | 20470 ft | 349 kts | 236° |
| 2026-05-05 17:53 | 40.05748 | 4.06800 | 19946 ft | 348 kts | 236° |
| 2026-05-05 17:53 | 40.04328 | 4.04275 | 19447 ft | 345 kts | 236° |
| 2026-05-05 17:54 | 40.02922 | 4.01777 | 18949 ft | 343 kts | 236° |
| 2026-05-05 17:54 | 40.01522 | 3.99291 | 18449 ft | 341 kts | 236° |
| 2026-05-05 17:54 | 40.00122 | 3.96807 | 17947 ft | 339 kts | 236° |
| 2026-05-05 17:54 | 39.98736 | 3.94348 | 17450 ft | 336 kts | 236° |
| 2026-05-05 17:55 | 39.97358 | 3.91907 | 16999 ft | 333 kts | 236° |
| 2026-05-05 17:55 | 39.95990 | 3.89486 | 16546 ft | 330 kts | 236° |
| 2026-05-05 17:55 | 39.94648 | 3.87114 | 16098 ft | 327 kts | 236° |
| 2026-05-05 17:55 | 39.93293 | 3.84719 | 15642 ft | 324 kts | 236° |
| 2026-05-05 17:56 | 39.91976 | 3.82393 | 15196 ft | 321 kts | 236° |
| 2026-05-05 17:56 | 39.90645 | 3.80045 | 14742 ft | 319 kts | 235° |
| 2026-05-05 17:56 | 39.89334 | 3.77734 | 14291 ft | 317 kts | 235° |
| 2026-05-05 17:56 | 39.88028 | 3.75432 | 13839 ft | 314 kts | 235° |
| 2026-05-05 17:57 | 39.86738 | 3.73162 | 13390 ft | 312 kts | 235° |
| 2026-05-05 17:57 | 39.85445 | 3.70888 | 12937 ft | 310 kts | 235° |
| 2026-05-05 17:57 | 39.84166 | 3.68639 | 12485 ft | 308 kts | 235° |
| 2026-05-05 17:57 | 39.82894 | 3.66406 | 12035 ft | 307 kts | 235° |
| 2026-05-05 17:58 | 39.81641 | 3.64207 | 11590 ft | 305 kts | 235° |
| 2026-05-05 17:58 | 39.80390 | 3.62013 | 11215 ft | 301 kts | 235° |
| 2026-05-05 17:58 | 39.79151 | 3.59844 | 10837 ft | 297 kts | 235° |
| 2026-05-05 17:58 | 39.77941 | 3.57725 | 10463 ft | 293 kts | 235° |
| 2026-05-05 17:59 | 39.76737 | 3.55617 | 10083 ft | 287 kts | 235° |
| 2026-05-05 17:59 | 39.75561 | 3.53560 | 9706 ft | 280 kts | 235° |
| 2026-05-05 17:59 | 39.74406 | 3.51539 | 9328 ft | 275 kts | 235° |
| 2026-05-05 17:59 | 39.73274 | 3.49560 | 8955 ft | 271 kts | 235° |
| 2026-05-05 18:00 | 39.72154 | 3.47605 | 8581 ft | 270 kts | 235° |
| 2026-05-05 18:00 | 39.71044 | 3.45670 | 8208 ft | 268 kts | 235° |
| 2026-05-05 18:00 | 39.70094 | 3.43605 | 7825 ft | 265 kts | 251° |
| 2026-05-05 18:00 | 39.69832 | 3.41287 | 7451 ft | 262 kts | 276° |
| 2026-05-05 18:01 | 39.70322 | 3.39023 | 7086 ft | 260 kts | 291° |
| 2026-05-05 18:01 | 39.71007 | 3.36852 | 6713 ft | 259 kts | 291° |
| 2026-05-05 18:01 | 39.71672 | 3.34697 | 6339 ft | 259 kts | 291° |
| 2026-05-05 18:01 | 39.72374 | 3.32426 | 6022 ft | 254 kts | 291° |
| 2026-05-05 18:02 | 39.73015 | 3.30377 | 5996 ft | 239 kts | 291° |
| 2026-05-05 18:02 | 39.73623 | 3.28430 | 6005 ft | 224 kts | 291° |
| 2026-05-05 18:02 | 39.74195 | 3.26595 | 6034 ft | 220 kts | 290° |
| 2026-05-05 18:02 | 39.74659 | 3.24681 | 5907 ft | 225 kts | 275° |
| 2026-05-05 18:03 | 39.74738 | 3.22659 | 5730 ft | 223 kts | 270° |
| 2026-05-05 18:03 | 39.74784 | 3.20636 | 5552 ft | 221 kts | 271° |
| 2026-05-05 18:03 | 39.74802 | 3.18647 | 5375 ft | 221 kts | 266° |
| 2026-05-05 18:03 | 39.74675 | 3.16659 | 5199 ft | 220 kts | 264° |
| 2026-05-05 18:04 | 39.74384 | 3.14740 | 5029 ft | 219 kts | 244° |
| 2026-05-05 18:04 | 39.73528 | 3.13129 | 5014 ft | 218 kts | 232° |
| 2026-05-05 18:04 | 39.72570 | 3.11586 | 5017 ft | 221 kts | 232° |
| 2026-05-05 18:04 | 39.71632 | 3.09984 | 5010 ft | 219 kts | 233° |
| 2026-05-05 18:05 | 39.70721 | 3.08372 | 5010 ft | 219 kts | 236° |
| 2026-05-05 18:05 | 39.69904 | 3.06723 | 5011 ft | 219 kts | 237° |
| 2026-05-05 18:05 | 39.69094 | 3.05027 | 5011 ft | 219 kts | 238° |
| 2026-05-05 18:05 | 39.68297 | 3.03331 | 4904 ft | 222 kts | 238° |
| 2026-05-05 18:06 | 39.67502 | 3.01635 | 4616 ft | 217 kts | 238° |
| 2026-05-05 18:06 | 39.67249 | 3.01094 | 4551 ft | 213 kts | 238° |
| 2026-05-05 18:06 | 39.65996 | 2.98415 | 4038 ft | 203 kts | 238° |
| 2026-05-05 18:06 | 39.65283 | 2.96894 | 3798 ft | 191 kts | 238° |
| 2026-05-05 18:07 | 39.64610 | 2.95458 | 3491 ft | 184 kts | 238° |
| 2026-05-05 18:07 | 39.63965 | 2.94081 | 3260 ft | 172 kts | 238° |
| 2026-05-05 18:07 | 39.63350 | 2.92769 | 3016 ft | 170 kts | 238° |
| 2026-05-05 18:07 | 39.62735 | 2.91458 | 2789 ft | 171 kts | 237° |
| 2026-05-05 18:08 | 39.62114 | 2.90139 | 2549 ft | 171 kts | 238° |
| 2026-05-05 18:08 | 39.61507 | 2.88845 | 2310 ft | 165 kts | 238° |
| 2026-05-05 18:08 | 39.60931 | 2.87620 | 2122 ft | 155 kts | 238° |
| 2026-05-05 18:08 | 39.60381 | 2.86452 | 1866 ft | 147 kts | 238° |
| 2026-05-05 18:09 | 39.59867 | 2.85355 | 1703 ft | 141 kts | 237° |
| 2026-05-05 18:09 | 39.59354 | 2.84266 | 1497 ft | 142 kts | 237° |
| 2026-05-05 18:09 | 39.58842 | 2.83182 | 1291 ft | 138 kts | 237° |
| 2026-05-05 18:09 | 39.58342 | 2.82120 | 1131 ft | 139 kts | 237° |
| 2026-05-05 18:10 | 39.57835 | 2.81060 | 912 ft | 138 kts | 236° |
| 2026-05-05 18:10 | 39.57327 | 2.80012 | 688 ft | 139 kts | 238° |
| 2026-05-05 18:10 | 39.56843 | 2.78919 | 543 ft | 138 kts | 237° |
| 2026-05-05 18:10 | 39.56340 | 2.77868 | 356 ft | 139 kts | 237° |
| 2026-05-05 18:11 | 39.55834 | 2.76786 | 189 ft | 139 kts | 236° |
| 2026-05-05 18:11 | 39.55331 | 2.75722 | 37 ft | 129 kts | 237° |
| 2026-05-05 18:11 | 39.54959 | 2.74937 | 35 ft | 76 kts | 238° |
| 2026-05-05 18:11 | 39.54733 | 2.74457 | 35 ft | 53 kts | 239° |
| 2026-05-05 18:12 | 39.54590 | 2.74148 | 35 ft | 28 kts | 249° |
| 2026-05-05 18:12 | 39.54552 | 2.73949 | 35 ft | 17 kts | 263° |
| 2026-05-05 18:12 | 39.54548 | 2.73855 | 35 ft | 7 kts | 269° |
| 2026-05-05 18:12 | 39.54548 | 2.73794 | 35 ft | 6 kts | 270° |
| 2026-05-05 18:13 | 39.54552 | 2.73722 | 35 ft | 9 kts | 283° |
| 2026-05-05 18:13 | 39.54594 | 2.73640 | 35 ft | 12 kts | 321° |
| 2026-05-05 18:13 | 39.54666 | 2.73604 | 35 ft | 12 kts | 335° |
| 2026-05-05 18:13 | 39.54747 | 2.73544 | 35 ft | 11 kts | 329° |
| 2026-05-05 18:14 | 39.54810 | 2.73497 | 35 ft | 6 kts | 340° |
| 2026-05-05 18:14 | 39.54841 | 2.73504 | 35 ft | 3 kts | 37° |
| 2026-05-05 18:14 | 39.54859 | 2.73525 | 35 ft | 3 kts | 46° |
| 2026-05-05 18:14 | 39.54864 | 2.73532 | 35 ft | 0 kts | 47° |